createdAt,value
2018-06-19T00:01:24.382Z,18.60
2018-06-19T00:03:51.975Z,18.60
2018-06-19T00:06:19.576Z,18.60
2018-06-19T00:08:47.164Z,18.60
2018-06-19T00:11:14.708Z,18.60
2018-06-19T00:13:42.325Z,18.50
2018-06-19T00:16:09.986Z,18.50
2018-06-19T00:18:58.831Z,18.50
2018-06-19T00:21:35.080Z,18.50
2018-06-19T00:24:02.672Z,18.40
2018-06-19T00:26:30.378Z,18.30
2018-06-19T00:28:59.222Z,18.30
2018-06-19T00:31:26.863Z,18.30
2018-06-19T00:33:54.492Z,18.20
2018-06-19T00:36:22.064Z,18.20
2018-06-19T00:38:49.609Z,18.10
2018-06-19T00:41:17.257Z,18.00
2018-06-19T00:43:44.844Z,17.90
2018-06-19T00:46:13.439Z,17.90
2018-06-19T00:48:41.060Z,17.80
2018-06-19T00:51:08.633Z,17.70
2018-06-19T00:53:36.233Z,17.70
2018-06-19T00:56:21.402Z,17.60
2018-06-19T00:58:49.106Z,17.60
2018-06-19T01:01:16.919Z,17.50
2018-06-19T01:03:44.751Z,17.50
2018-06-19T01:06:12.437Z,17.50
2018-06-19T01:08:40.355Z,17.50
2018-06-19T01:11:08.101Z,17.40
2018-06-19T01:13:35.669Z,17.40
2018-06-19T01:16:03.259Z,17.40
2018-06-19T01:18:31.158Z,17.40
2018-06-19T01:20:58.818Z,17.40
2018-06-19T01:23:26.399Z,17.40
2018-06-19T01:25:54.013Z,17.40
2018-06-19T01:28:21.630Z,17.40
2018-06-19T01:30:49.249Z,17.30
2018-06-19T01:35:44.474Z,17.30
2018-06-19T01:38:12.026Z,17.30
2018-06-19T01:40:39.592Z,17.30
2018-06-19T01:43:07.182Z,17.30
2018-06-19T01:45:34.786Z,17.20
2018-06-19T01:48:02.424Z,17.20
2018-06-19T01:50:30.050Z,17.20
2018-06-19T01:52:58.638Z,17.20
2018-06-19T01:55:26.238Z,17.20
2018-06-19T02:00:28.019Z,17.10
2018-06-19T02:02:55.569Z,17.10
2018-06-19T02:05:23.139Z,17.10
2018-06-19T02:07:50.689Z,17.10
2018-06-19T02:10:18.262Z,17.10
2018-06-19T02:12:45.838Z,17.00
2018-06-19T02:15:13.387Z,17.00
2018-06-19T02:17:41.022Z,17.00
2018-06-19T02:20:08.896Z,17.00
2018-06-19T02:22:37.069Z,17.00
2018-06-19T02:25:05.236Z,17.00
2018-06-19T02:27:32.874Z,16.90
2018-06-19T02:30:00.565Z,16.90
2018-06-19T02:32:28.306Z,16.90
2018-06-19T02:34:55.930Z,16.90
2018-06-19T02:37:23.485Z,16.90
2018-06-19T02:39:51.194Z,16.90
2018-06-19T02:42:19.429Z,16.90
2018-06-19T02:44:47.049Z,16.90
2018-06-19T02:47:14.651Z,16.80
2018-06-19T02:49:42.306Z,16.80
2018-06-19T02:52:10.003Z,16.90
2018-06-19T02:54:37.623Z,16.90
2018-06-19T02:57:05.293Z,16.90
2018-06-19T02:59:32.949Z,16.80
2018-06-19T03:02:00.577Z,16.80
2018-06-19T03:04:28.159Z,16.80
2018-06-19T03:06:56.575Z,16.70
2018-06-19T03:09:24.268Z,16.80
2018-06-19T03:11:51.906Z,16.80
2018-06-19T03:14:19.550Z,16.80
2018-06-19T03:16:47.242Z,16.80
2018-06-19T03:21:42.603Z,16.80
2018-06-19T03:24:10.241Z,16.80
2018-06-19T03:26:37.923Z,16.80
2018-06-19T03:29:05.581Z,16.90
2018-06-19T03:31:33.203Z,16.90
2018-06-19T03:34:00.811Z,16.90
2018-06-19T03:36:28.481Z,16.90
2018-06-19T03:38:56.187Z,17.00
2018-06-19T03:41:23.847Z,17.10
2018-06-19T03:43:51.477Z,17.20
2018-06-19T03:46:19.157Z,17.20
2018-06-19T03:48:46.754Z,17.30
2018-06-19T03:51:14.396Z,17.30
2018-06-19T03:53:42.027Z,17.30
2018-06-19T03:56:09.655Z,17.30
2018-06-19T03:58:37.283Z,17.40
2018-06-19T04:01:04.909Z,17.40
2018-06-19T04:03:32.502Z,17.40
2018-06-19T04:06:00.164Z,17.40
2018-06-19T04:08:27.804Z,17.40
2018-06-19T04:10:55.430Z,17.50
2018-06-19T04:13:23.128Z,17.50
2018-06-19T04:15:50.861Z,17.60
2018-06-19T04:18:18.466Z,17.70
2018-06-19T04:20:46.078Z,17.80
2018-06-19T04:23:13.641Z,17.90
2018-06-19T04:25:41.250Z,17.90
2018-06-19T04:28:08.898Z,18.10
2018-06-19T04:30:36.528Z,18.10
2018-06-19T04:33:04.257Z,18.10
2018-06-19T04:35:32.926Z,18.00
2018-06-19T04:38:00.597Z,18.10
2018-06-19T04:40:28.197Z,18.20
2018-06-19T04:42:55.947Z,18.20
2018-06-19T04:45:23.573Z,18.30
2018-06-19T04:47:51.243Z,18.30
2018-06-19T04:50:18.936Z,18.50
2018-06-19T04:52:46.638Z,18.50
2018-06-19T04:55:14.258Z,18.70
2018-06-19T04:57:42.424Z,18.90
2018-06-19T05:00:10.127Z,19.10
2018-06-19T05:02:37.762Z,19.30
2018-06-19T05:05:05.534Z,19.50
2018-06-19T05:07:33.155Z,19.70
2018-06-19T05:10:00.720Z,19.70
2018-06-19T05:12:28.311Z,19.70
2018-06-19T05:14:55.960Z,19.70
2018-06-19T05:17:23.606Z,19.50
2018-06-19T05:19:51.218Z,19.60
2018-06-19T05:22:18.862Z,19.60
2018-06-19T05:24:46.503Z,19.70
2018-06-19T05:27:14.118Z,19.70
2018-06-19T05:29:41.706Z,20.00
2018-06-19T05:32:09.337Z,20.00
2018-06-19T05:34:36.964Z,20.20
2018-06-19T05:37:05.137Z,20.20
2018-06-19T05:39:32.761Z,20.40
2018-06-19T05:42:00.339Z,20.50
2018-06-19T05:44:28.009Z,20.70
2018-06-19T05:46:55.629Z,20.70
2018-06-19T05:49:23.360Z,20.80
2018-06-19T05:51:51.045Z,20.90
2018-06-19T05:54:18.635Z,20.80
2018-06-19T05:56:46.453Z,20.70
2018-06-19T05:59:14.715Z,20.70
2018-06-19T06:01:42.428Z,21.00
2018-06-19T06:04:10.644Z,21.20
2018-06-19T06:06:38.317Z,21.40
2018-06-19T06:09:08.991Z,21.50
2018-06-19T06:11:36.791Z,21.50
2018-06-19T06:14:04.494Z,21.80
2018-06-19T06:16:32.196Z,21.70
2018-06-19T06:18:59.823Z,21.60
2018-06-19T06:21:27.664Z,21.80
2018-06-19T06:23:55.313Z,21.40
2018-06-19T06:26:22.898Z,21.60
2018-06-19T06:28:50.492Z,21.60
2018-06-19T06:31:18.297Z,21.60
2018-06-19T06:33:45.860Z,21.50
2018-06-19T06:36:13.521Z,21.70
2018-06-19T06:38:41.246Z,21.60
2018-06-19T06:41:08.842Z,21.60
2018-06-19T06:46:04.345Z,21.90
2018-06-19T06:48:31.940Z,21.70
2018-06-19T06:50:59.585Z,22.00
2018-06-19T06:53:27.526Z,22.00
2018-06-19T06:55:55.170Z,22.10
2018-06-19T06:58:23.250Z,21.90
2018-06-19T07:00:50.891Z,21.80
2018-06-19T07:03:19.305Z,21.80
2018-06-19T07:05:46.953Z,22.00
2018-06-19T07:08:14.573Z,22.10
2018-06-19T07:10:42.271Z,22.20
2018-06-19T07:13:09.926Z,22.40
2018-06-19T07:15:37.572Z,22.40
2018-06-19T07:18:05.253Z,22.60
2018-06-19T07:20:32.901Z,22.50
2018-06-19T07:23:00.556Z,22.50
2018-06-19T07:25:28.444Z,23.00
2018-06-19T07:27:55.995Z,23.30
2018-06-19T07:30:23.580Z,23.00
2018-06-19T07:32:51.110Z,23.10
2018-06-19T07:35:18.777Z,23.40
2018-06-19T07:37:46.467Z,23.40
2018-06-19T07:42:41.746Z,24.90
2018-06-19T07:45:09.382Z,24.60
2018-06-19T07:47:36.974Z,24.40
2018-06-19T07:50:04.936Z,24.40
2018-06-19T07:52:32.526Z,24.10
2018-06-19T07:55:00.834Z,24.40
2018-06-19T07:57:29.165Z,24.30
2018-06-19T07:59:56.834Z,23.70
2018-06-19T08:02:24.377Z,23.10
2018-06-19T08:04:52.015Z,23.20
2018-06-19T08:07:19.585Z,23.20
2018-06-19T08:09:47.170Z,23.40
2018-06-19T08:12:14.770Z,22.70
2018-06-19T08:14:42.371Z,22.60
2018-06-19T08:17:09.986Z,22.90
2018-06-19T08:19:37.620Z,23.00
2018-06-19T08:22:05.239Z,23.40
2018-06-19T08:24:32.917Z,23.30
2018-06-19T08:27:00.523Z,23.30
2018-06-19T08:29:28.153Z,23.40
2018-06-19T08:31:55.744Z,23.50
2018-06-19T08:34:23.362Z,23.90
2018-06-19T08:36:50.951Z,23.60
2018-06-19T08:39:18.628Z,23.70
2018-06-19T08:41:46.316Z,23.60
2018-06-19T08:44:13.863Z,24.00
2018-06-19T08:46:41.933Z,23.90
2018-06-19T08:49:10.725Z,23.60
2018-06-19T08:51:38.405Z,23.80
2018-06-19T08:54:05.964Z,24.60
2018-06-19T08:56:34.850Z,24.90
2018-06-19T08:59:02.602Z,24.90
2018-06-19T09:01:30.796Z,25.40
2018-06-19T09:03:58.475Z,25.50
2018-06-19T09:06:26.156Z,25.20
2018-06-19T09:08:53.762Z,24.60
2018-06-19T09:11:21.364Z,24.60
2018-06-19T09:13:48.953Z,24.80
2018-06-19T09:16:16.586Z,24.70
2018-06-19T09:18:44.242Z,24.50
2018-06-19T09:21:11.934Z,24.70
2018-06-19T09:23:40.078Z,25.40
2018-06-19T09:26:07.895Z,25.40
2018-06-19T09:28:35.527Z,25.50
2018-06-19T09:31:03.231Z,25.10
2018-06-19T09:33:30.897Z,25.00
2018-06-19T09:35:58.564Z,25.10
2018-06-19T09:38:26.171Z,24.70
2018-06-19T09:40:53.795Z,24.90
2018-06-19T09:43:21.401Z,24.70
2018-06-19T09:45:49.051Z,24.60
2018-06-19T09:48:16.712Z,24.50
2018-06-19T09:50:44.314Z,24.70
2018-06-19T09:53:11.974Z,24.70
2018-06-19T09:55:39.689Z,24.90
2018-06-19T09:58:07.322Z,25.80
2018-06-19T10:00:35.820Z,25.60
2018-06-19T10:03:03.700Z,25.60
2018-06-19T10:05:31.861Z,24.70
2018-06-19T10:07:59.975Z,24.60
2018-06-19T10:10:27.621Z,24.30
2018-06-19T10:12:55.562Z,24.20
2018-06-19T10:15:23.261Z,24.50
2018-06-19T10:17:50.997Z,24.90
2018-06-19T10:20:19.441Z,25.10
2018-06-19T10:22:47.075Z,25.60
2018-06-19T10:25:14.989Z,26.10
2018-06-19T10:27:42.655Z,26.00
2018-06-19T10:30:10.349Z,26.20
2018-06-19T10:32:37.971Z,26.30
2018-06-19T10:35:05.994Z,26.20
2018-06-19T10:37:33.638Z,25.90
2018-06-19T10:40:01.677Z,25.80
2018-06-19T10:42:29.354Z,26.30
2018-06-19T10:44:56.975Z,26.50
2018-06-19T10:47:25.261Z,25.80
2018-06-19T10:49:52.866Z,25.60
2018-06-19T10:52:20.635Z,25.00
2018-06-19T10:54:48.240Z,25.30
2018-06-19T10:57:15.901Z,25.50
2018-06-19T10:59:43.729Z,25.30
2018-06-19T11:02:11.422Z,25.80
2018-06-19T11:04:39.015Z,26.00
2018-06-19T11:07:06.637Z,25.90
2018-06-19T11:09:34.479Z,26.80
2018-06-19T11:12:02.136Z,27.40
2018-06-19T11:14:29.857Z,27.30
2018-06-19T11:16:57.510Z,26.60
2018-06-19T11:19:25.129Z,27.00
2018-06-19T11:21:52.889Z,26.90
2018-06-19T11:24:20.547Z,26.10
2018-06-19T11:26:49.304Z,26.50
2018-06-19T11:29:17.002Z,26.90
2018-06-19T11:31:44.701Z,26.00
2018-06-19T11:34:12.303Z,26.30
2018-06-19T11:36:40.143Z,25.90
2018-06-19T11:39:10.835Z,26.10
2018-06-19T11:41:39.123Z,26.90
2018-06-19T11:44:06.852Z,27.60
2018-06-19T11:46:34.498Z,27.20
2018-06-19T11:49:02.211Z,26.70
2018-06-19T11:51:29.913Z,26.90
2018-06-19T11:53:57.738Z,27.60
2018-06-19T11:56:25.491Z,28.50
2018-06-19T11:58:53.882Z,29.00
2018-06-19T12:01:21.537Z,29.20
2018-06-19T12:03:49.923Z,29.50
2018-06-19T12:06:17.851Z,29.60
2018-06-19T12:08:45.420Z,30.60
2018-06-19T12:11:13.113Z,32.90
2018-06-19T12:13:40.725Z,32.90
2018-06-19T12:16:08.356Z,29.40
2018-06-19T12:18:36.021Z,27.90
2018-06-19T12:21:03.717Z,27.60
2018-06-19T12:23:31.379Z,26.80
2018-06-19T12:25:59.097Z,26.40
2018-06-19T12:28:27.022Z,26.30
2018-06-19T12:30:54.801Z,26.40
2018-06-19T12:33:22.461Z,26.40
2018-06-19T12:35:50.032Z,26.30
2018-06-19T12:38:17.662Z,26.20
2018-06-19T12:40:45.236Z,26.10
2018-06-19T12:43:13.420Z,25.80
2018-06-19T12:45:41.020Z,25.80
2018-06-19T12:48:08.642Z,25.70
2018-06-19T12:51:58.414Z,25.80
2018-06-19T12:54:43.454Z,25.70
2018-06-19T12:57:11.154Z,25.70
2018-06-19T12:59:38.743Z,25.70
2018-06-19T13:02:06.499Z,25.90
2018-06-19T13:04:51.822Z,26.30
2018-06-19T13:07:19.419Z,26.60
2018-06-19T13:09:47.031Z,27.40
2018-06-19T13:12:32.423Z,27.50
2018-06-19T13:14:59.961Z,27.80
2018-06-19T13:17:45.040Z,28.20
2018-06-19T13:20:30.354Z,28.60
2018-06-19T13:22:58.036Z,29.30
2018-06-19T13:25:26.116Z,30.70
2018-06-19T13:27:53.808Z,30.00
2018-06-19T13:30:39.260Z,28.90
2018-06-19T13:33:06.952Z,28.30
2018-06-19T13:35:34.538Z,29.10
2018-06-19T13:38:03.036Z,28.80
2018-06-19T13:41:20.767Z,28.80
2018-06-19T13:44:09.404Z,30.30
2018-06-19T13:46:36.980Z,33.80
2018-06-19T13:49:04.706Z,34.60
2018-06-19T13:51:32.521Z,33.90
2018-06-19T13:54:00.106Z,31.30
2018-06-19T13:57:51.808Z,29.20
2018-06-19T14:00:20.714Z,28.40
2018-06-19T14:02:48.459Z,28.50
2018-06-19T14:05:17.128Z,28.60
2018-06-19T14:08:13.472Z,29.20
2018-06-19T14:10:58.461Z,30.10
2018-06-19T14:13:26.103Z,30.60
2018-06-19T14:15:53.684Z,31.20
2018-06-19T14:18:21.620Z,31.30
2018-06-19T14:20:49.305Z,32.70
2018-06-19T14:23:16.932Z,36.00
2018-06-19T14:25:44.717Z,35.90
2018-06-19T14:28:12.346Z,34.40
2018-06-19T14:30:39.938Z,32.60
2018-06-19T14:33:07.809Z,31.50
2018-06-19T14:35:35.370Z,31.30
2018-06-19T14:38:03.003Z,30.90
2018-06-19T14:40:30.618Z,30.60
2018-06-19T14:42:58.238Z,30.60
2018-06-19T14:45:25.917Z,30.30
2018-06-19T14:47:53.544Z,31.70
2018-06-19T14:50:21.155Z,32.40
2018-06-19T14:52:48.731Z,31.40
2018-06-19T14:55:16.380Z,30.80
2018-06-19T14:57:43.915Z,30.20
2018-06-19T15:00:11.787Z,30.20
2018-06-19T15:02:39.457Z,29.90
2018-06-19T15:05:07.297Z,29.70
2018-06-19T15:07:40.917Z,29.10
2018-06-19T15:10:08.533Z,28.60
2018-06-19T15:12:36.113Z,28.40
2018-06-19T15:15:03.778Z,28.90
2018-06-19T15:17:31.381Z,28.40
2018-06-19T15:19:59.007Z,28.00
2018-06-19T15:22:26.638Z,28.20
2018-06-19T15:24:54.223Z,28.50
2018-06-19T15:27:21.803Z,27.80
2018-06-19T15:29:49.369Z,27.90
2018-06-19T15:32:16.966Z,27.70
2018-06-19T15:34:44.576Z,27.60
2018-06-19T15:37:12.131Z,27.70
2018-06-19T15:39:39.792Z,28.00
2018-06-19T15:42:07.343Z,28.30
2018-06-19T15:44:34.931Z,28.10
2018-06-19T15:47:02.522Z,27.80
2018-06-19T15:49:30.095Z,27.90
2018-06-19T15:51:57.675Z,27.80
2018-06-19T15:54:25.229Z,27.90
2018-06-19T15:56:52.782Z,27.80
2018-06-19T15:59:20.444Z,27.50
2018-06-19T16:01:48.022Z,27.50
2018-06-19T16:04:15.593Z,27.30
2018-06-19T16:06:43.197Z,26.90
2018-06-19T16:11:39.023Z,26.40
2018-06-19T16:14:06.580Z,26.50
2018-06-19T16:16:34.249Z,26.10
2018-06-19T16:19:02.318Z,26.30
2018-06-19T16:21:29.870Z,26.20
2018-06-19T16:23:57.659Z,26.20
2018-06-19T16:26:25.232Z,26.10
2018-06-19T16:28:52.826Z,25.90
2018-06-19T16:31:20.427Z,25.80
2018-06-19T16:33:48.341Z,25.80
2018-06-19T16:36:15.930Z,25.70
2018-06-19T16:38:43.851Z,25.60
2018-06-19T16:41:11.402Z,25.50
2018-06-19T16:43:39.012Z,25.30
2018-06-19T16:46:06.654Z,25.30
2018-06-19T16:48:34.528Z,25.20
2018-06-19T16:51:02.160Z,25.30
2018-06-19T16:53:29.748Z,24.90
2018-06-19T16:55:57.395Z,25.10
2018-06-19T16:58:25.004Z,25.00
2018-06-19T17:00:52.900Z,25.00
2018-06-19T17:03:20.542Z,25.00
2018-06-19T17:05:48.185Z,25.00
2018-06-19T17:08:15.763Z,25.10
2018-06-19T17:10:43.360Z,25.10
2018-06-19T17:13:10.967Z,25.10
2018-06-19T17:15:38.547Z,25.10
2018-06-19T17:18:06.161Z,25.10
2018-06-19T17:20:33.781Z,24.90
2018-06-19T17:23:01.436Z,24.90
2018-06-19T17:25:29.207Z,24.80
2018-06-19T17:27:56.864Z,24.70
2018-06-19T17:30:24.554Z,24.60
2018-06-19T17:32:52.176Z,24.60
2018-06-19T17:35:19.841Z,24.60
2018-06-19T17:37:47.536Z,24.60
2018-06-19T17:40:15.252Z,24.60
2018-06-19T17:42:45.395Z,24.50
2018-06-19T17:45:13.109Z,24.50
2018-06-19T17:47:40.836Z,24.40
2018-06-19T17:50:08.583Z,24.40
2018-06-19T17:52:36.364Z,24.30
2018-06-19T17:55:04.068Z,24.40
2018-06-19T17:57:31.827Z,24.30
2018-06-19T17:59:59.699Z,24.20
2018-06-19T18:02:27.436Z,24.20
2018-06-19T18:04:55.096Z,24.20
2018-06-19T18:07:22.784Z,24.20
2018-06-19T18:09:50.531Z,24.20
2018-06-19T18:12:18.272Z,24.10
2018-06-19T18:14:45.954Z,24.10
2018-06-19T18:17:13.696Z,24.10
2018-06-19T18:19:41.450Z,24.00
2018-06-19T18:22:09.164Z,24.00
2018-06-19T18:24:36.853Z,24.00
2018-06-19T18:27:04.609Z,24.00
2018-06-19T18:29:32.879Z,24.00
2018-06-19T18:32:00.636Z,23.90
2018-06-19T18:34:28.406Z,24.00
2018-06-19T18:36:56.144Z,23.90
2018-06-19T18:39:23.909Z,23.80
2018-06-19T18:41:51.645Z,23.60
2018-06-19T18:44:21.312Z,23.60
2018-06-19T18:46:49.437Z,23.50
2018-06-19T18:49:17.110Z,23.40
2018-06-19T18:51:44.947Z,23.40
2018-06-19T18:54:12.645Z,23.30
2018-06-19T18:56:40.455Z,23.30
2018-06-19T18:59:08.293Z,23.20
2018-06-19T19:01:36.071Z,23.10
2018-06-19T19:04:04.036Z,23.10
2018-06-19T19:06:32.057Z,22.90
2018-06-19T19:08:59.704Z,22.90
2018-06-19T19:11:27.364Z,22.80
2018-06-19T19:13:55.085Z,22.80
2018-06-19T19:16:28.619Z,22.70
2018-06-19T19:18:59.852Z,22.60
2018-06-19T19:21:27.453Z,22.50
2018-06-19T19:23:55.016Z,22.40
2018-06-19T19:29:02.710Z,22.20
2018-06-19T19:31:30.367Z,22.20
2018-06-19T19:33:58.208Z,22.10
2018-06-19T19:36:32.634Z,22.00
2018-06-19T19:39:06.647Z,21.90
2018-06-19T19:41:34.608Z,21.80
2018-06-19T19:44:02.294Z,21.70
2018-06-19T19:46:36.094Z,21.70
2018-06-19T19:49:03.783Z,21.60
2018-06-19T19:51:31.475Z,21.50
2018-06-19T19:53:59.247Z,21.50
2018-06-19T19:56:32.712Z,21.40
2018-06-19T19:59:01.100Z,21.30
2018-06-19T20:01:28.798Z,21.20
2018-06-19T20:03:56.443Z,21.10
2018-06-19T20:06:24.156Z,21.00
2018-06-19T20:08:51.783Z,21.00
2018-06-19T20:11:19.410Z,20.90
2018-06-19T20:13:47.717Z,20.80
2018-06-19T20:16:15.320Z,20.80
2018-06-19T20:18:42.939Z,20.70
2018-06-19T20:21:10.530Z,20.60
2018-06-19T20:23:38.167Z,20.50
2018-06-19T20:26:05.741Z,20.50
2018-06-19T20:28:33.327Z,20.40
2018-06-19T20:31:00.974Z,20.40
2018-06-19T20:33:28.642Z,20.30
2018-06-19T20:35:56.269Z,20.30
2018-06-19T20:38:23.926Z,20.20
2018-06-19T20:40:51.590Z,20.20
2018-06-19T20:43:19.160Z,20.10
2018-06-19T20:45:46.834Z,20.10
2018-06-19T20:48:14.540Z,20.10
2018-06-19T20:50:42.189Z,20.10
2018-06-19T20:53:09.793Z,20.00
2018-06-19T20:55:37.387Z,19.90
2018-06-19T20:58:05.286Z,19.90
2018-06-19T21:00:33.021Z,19.80
2018-06-19T21:03:00.881Z,19.80
2018-06-19T21:05:28.480Z,19.80
2018-06-19T21:07:56.064Z,19.80
2018-06-19T21:10:23.856Z,19.80
2018-06-19T21:12:51.534Z,19.80
2018-06-19T21:15:19.110Z,19.70
2018-06-19T21:17:46.725Z,19.70
2018-06-19T21:20:14.955Z,19.70
2018-06-19T21:22:42.555Z,19.70
2018-06-19T21:25:10.117Z,19.70
2018-06-19T21:27:37.661Z,19.60
2018-06-19T21:30:06.291Z,19.60
2018-06-19T21:32:33.929Z,19.60
2018-06-19T21:35:01.607Z,19.60
2018-06-19T21:37:29.285Z,19.60
2018-06-19T21:39:56.916Z,19.50
2018-06-19T21:42:24.478Z,19.50
2018-06-19T21:44:52.036Z,19.40
2018-06-19T21:47:19.582Z,19.50
2018-06-19T21:49:47.115Z,19.50
2018-06-19T21:52:14.706Z,19.50
2018-06-19T21:54:42.225Z,19.50
2018-06-19T21:57:09.785Z,19.40
2018-06-19T21:59:37.367Z,19.40
2018-06-19T22:02:05.019Z,19.40
2018-06-19T22:04:32.661Z,19.40
2018-06-19T22:07:00.277Z,19.50
2018-06-19T22:09:27.831Z,19.40
2018-06-19T22:11:55.441Z,19.40
2018-06-19T22:14:23.039Z,19.50
2018-06-19T22:16:50.587Z,19.50
2018-06-19T22:19:18.172Z,19.60
2018-06-19T22:24:13.354Z,19.70
2018-06-19T22:26:40.958Z,19.60
2018-06-19T22:29:08.485Z,19.60
2018-06-19T22:31:42.849Z,19.60
2018-06-19T22:34:10.515Z,19.70
2018-06-19T22:36:38.142Z,19.70
2018-06-19T22:39:06.780Z,19.80
2018-06-19T22:41:34.363Z,19.70
2018-06-19T22:44:01.926Z,19.80
2018-06-19T22:46:29.485Z,19.80
2018-06-19T22:48:57.062Z,19.90
2018-06-19T22:51:24.628Z,19.90
2018-06-19T22:53:52.218Z,19.90
2018-06-19T22:56:19.830Z,19.90
2018-06-19T22:58:47.381Z,20.00
2018-06-19T23:01:15.404Z,20.00
2018-06-19T23:03:42.994Z,20.00
2018-06-19T23:06:10.592Z,20.10
2018-06-19T23:08:38.165Z,20.10
2018-06-19T23:11:06.110Z,20.20
2018-06-19T23:13:33.651Z,20.20
2018-06-19T23:16:01.265Z,20.20
2018-06-19T23:18:28.815Z,20.20
2018-06-19T23:23:24.392Z,20.30
2018-06-19T23:25:51.951Z,20.20
2018-06-19T23:28:19.483Z,20.10
2018-06-19T23:30:47.025Z,20.00
2018-06-19T23:33:14.590Z,19.90
2018-06-19T23:35:42.827Z,19.80
2018-06-19T23:38:10.383Z,19.80
2018-06-19T23:40:37.979Z,19.70
2018-06-19T23:43:05.510Z,19.60
2018-06-19T23:45:33.040Z,19.60
2018-06-19T23:48:00.616Z,19.70
2018-06-19T23:50:28.178Z,19.60
2018-06-19T23:52:55.812Z,19.70
2018-06-19T23:55:23.389Z,19.70
